createdAt,value
2017-11-24T00:00:38.323Z,7.20
2017-11-24T00:03:11.323Z,7.20
2017-11-24T00:05:41.342Z,7.20
2017-11-24T00:08:09.385Z,7.20
2017-11-24T00:10:38.418Z,7.20
2017-11-24T00:13:06.450Z,7.20
2017-11-24T00:15:38.235Z,7.30
2017-11-24T00:18:07.212Z,7.30
2017-11-24T00:20:40.863Z,7.40
2017-11-24T00:23:09.671Z,7.40
2017-11-24T00:25:38.595Z,7.40
2017-11-24T00:28:06.635Z,7.50
2017-11-24T00:30:37.907Z,7.50
2017-11-24T00:33:06.943Z,7.50
2017-11-24T00:35:35.727Z,7.60
2017-11-24T00:38:04.529Z,7.50
2017-11-24T00:40:33.319Z,7.50
2017-11-24T00:43:03.279Z,7.50
2017-11-24T00:45:31.295Z,7.50
2017-11-24T00:47:59.344Z,7.40
2017-11-24T00:50:30.043Z,7.30
2017-11-24T00:52:59.796Z,7.20
2017-11-24T00:55:29.579Z,7.20
2017-11-24T00:57:58.576Z,7.20
2017-11-24T01:00:27.598Z,7.20
2017-11-24T01:02:55.631Z,7.10
2017-11-24T01:05:27.206Z,6.90
2017-11-24T01:07:56.995Z,6.70
2017-11-24T01:10:25.019Z,6.70
2017-11-24T01:12:53.047Z,6.60
2017-11-24T01:15:25.144Z,6.60
2017-11-24T01:17:53.208Z,6.50
2017-11-24T01:20:21.279Z,6.40
2017-11-24T01:22:50.048Z,6.20
2017-11-24T01:25:20.795Z,6.10
2017-11-24T01:27:52.962Z,6.10
2017-11-24T01:30:22.752Z,6.00
2017-11-24T01:32:52.763Z,6.00
2017-11-24T01:35:25.063Z,6.10
2017-11-24T01:37:54.826Z,6.20
2017-11-24T01:40:22.843Z,6.20
2017-11-24T01:42:50.886Z,6.30
2017-11-24T01:45:18.903Z,6.50
2017-11-24T01:47:46.911Z,6.60
2017-11-24T01:50:14.966Z,6.70
2017-11-24T01:52:42.996Z,6.70
2017-11-24T01:55:11.771Z,7.00
2017-11-24T01:57:42.523Z,7.10
2017-11-24T02:00:10.551Z,7.10
2017-11-24T02:02:44.271Z,7.20
2017-11-24T02:05:13.067Z,7.40
2017-11-24T02:07:44.906Z,7.40
2017-11-24T02:10:12.951Z,7.40
2017-11-24T02:12:40.966Z,7.50
2017-11-24T02:15:09.767Z,7.60
2017-11-24T02:17:38.714Z,7.50
2017-11-24T02:20:09.895Z,7.60
2017-11-24T02:22:39.646Z,7.60
2017-11-24T02:25:08.651Z,7.60
2017-11-24T02:27:37.771Z,7.60
2017-11-24T02:30:05.779Z,7.60
2017-11-24T02:32:33.807Z,7.60
2017-11-24T02:35:07.215Z,7.50
2017-11-24T02:37:36.028Z,7.40
2017-11-24T02:40:04.042Z,7.40
2017-11-24T02:42:32.080Z,7.40
2017-11-24T02:45:00.102Z,7.40
2017-11-24T02:47:28.155Z,7.40
2017-11-24T02:49:59.211Z,7.40
2017-11-24T02:52:35.061Z,7.50
2017-11-24T02:55:03.095Z,7.50
2017-11-24T02:57:31.110Z,7.60
2017-11-24T02:59:59.894Z,7.60
2017-11-24T03:02:28.710Z,7.60
2017-11-24T03:04:56.735Z,7.50
2017-11-24T03:07:27.898Z,7.50
2017-11-24T03:09:56.702Z,7.50
2017-11-24T03:12:29.243Z,7.50
2017-11-24T03:14:57.279Z,7.50
2017-11-24T03:17:31.034Z,7.40
2017-11-24T03:19:59.050Z,7.40
2017-11-24T03:22:30.750Z,7.40
2017-11-24T03:24:59.750Z,7.40
2017-11-24T03:27:33.126Z,7.40
2017-11-24T03:30:01.155Z,7.40
2017-11-24T03:32:29.206Z,7.30
2017-11-24T03:34:57.186Z,7.30
2017-11-24T03:37:25.238Z,7.30
2017-11-24T03:39:55.011Z,7.20
2017-11-24T03:42:25.057Z,7.20
2017-11-24T03:44:53.854Z,7.20
2017-11-24T03:47:24.589Z,7.20
2017-11-24T03:49:59.654Z,7.20
2017-11-24T03:52:31.658Z,7.20
2017-11-24T03:54:59.714Z,7.20
2017-11-24T03:57:27.750Z,7.20
2017-11-24T03:59:55.822Z,7.20
2017-11-24T04:02:23.882Z,7.20
2017-11-24T04:04:52.824Z,7.20
2017-11-24T04:07:20.843Z,7.20
2017-11-24T04:09:48.885Z,7.20
2017-11-24T04:12:17.728Z,7.20
2017-11-24T04:14:45.762Z,7.20
2017-11-24T04:17:15.569Z,7.10
2017-11-24T04:19:45.363Z,7.10
2017-11-24T04:22:14.901Z,7.10
2017-11-24T04:24:43.857Z,7.10
2017-11-24T04:27:13.870Z,7.10
2017-11-24T04:29:46.649Z,7.10
2017-11-24T04:32:14.685Z,7.10
2017-11-24T04:34:44.618Z,7.10
2017-11-24T04:37:13.613Z,7.10
2017-11-24T04:39:42.541Z,7.10
2017-11-24T04:42:10.577Z,7.10
2017-11-24T04:44:39.565Z,7.00
2017-11-24T04:47:08.573Z,6.90
2017-11-24T04:49:37.537Z,6.80
2017-11-24T04:52:10.365Z,6.60
2017-11-24T04:54:38.389Z,6.50
2017-11-24T04:57:07.373Z,6.40
2017-11-24T04:59:40.798Z,6.40
2017-11-24T05:02:09.773Z,6.40
2017-11-24T05:04:41.141Z,6.40
2017-11-24T05:07:10.117Z,6.50
2017-11-24T05:09:40.125Z,6.60
2017-11-24T05:12:08.174Z,6.80
2017-11-24T05:14:36.192Z,6.90
2017-11-24T05:17:09.789Z,6.90
2017-11-24T05:19:38.758Z,6.90
2017-11-24T05:22:10.421Z,6.90
2017-11-24T05:24:38.435Z,6.90
2017-11-24T05:27:06.456Z,6.90
2017-11-24T05:29:34.477Z,6.80
2017-11-24T05:32:02.505Z,6.80
2017-11-24T05:34:31.485Z,6.80
2017-11-24T05:37:02.757Z,6.70
2017-11-24T05:39:38.453Z,6.50
2017-11-24T05:42:09.632Z,6.40
2017-11-24T05:44:38.621Z,6.30
2017-11-24T05:47:11.097Z,6.30
2017-11-24T05:49:40.077Z,6.20
2017-11-24T05:52:08.106Z,6.10
2017-11-24T05:54:38.079Z,6.00
2017-11-24T05:57:08.085Z,5.90
2017-11-24T05:59:37.084Z,5.80
2017-11-24T06:02:05.116Z,5.70
2017-11-24T06:04:33.227Z,5.70
2017-11-24T06:07:06.208Z,5.60
2017-11-24T06:09:40.013Z,5.50
2017-11-24T06:12:09.024Z,5.50
2017-11-24T06:14:38.013Z,5.40
2017-11-24T06:17:06.989Z,5.40
2017-11-24T06:19:38.253Z,5.40
2017-11-24T06:22:09.888Z,5.50
2017-11-24T06:24:38.828Z,5.50
2017-11-24T06:27:07.744Z,5.60
2017-11-24T06:29:37.677Z,5.60
2017-11-24T06:32:05.704Z,5.70
2017-11-24T06:34:37.197Z,5.70
2017-11-24T06:37:06.209Z,5.70
2017-11-24T06:39:34.229Z,5.80
2017-11-24T06:42:03.261Z,5.90
2017-11-24T06:44:39.721Z,6.00
2017-11-24T06:47:11.988Z,6.00
2017-11-24T06:49:40.013Z,6.10
2017-11-24T06:52:08.953Z,6.10
2017-11-24T06:54:37.945Z,6.10
2017-11-24T06:57:05.972Z,6.20
2017-11-24T06:59:34.902Z,6.30
2017-11-24T07:02:02.921Z,6.40
2017-11-24T07:04:30.968Z,6.40
2017-11-24T07:06:59.781Z,6.50
2017-11-24T07:09:27.805Z,6.50
2017-11-24T07:11:55.823Z,6.60
2017-11-24T07:14:23.836Z,6.80
2017-11-24T07:16:52.836Z,6.90
2017-11-24T07:19:22.882Z,7.00
2017-11-24T07:21:52.672Z,7.20
2017-11-24T07:24:21.649Z,7.20
2017-11-24T07:26:50.652Z,7.30
2017-11-24T07:29:18.660Z,7.40
2017-11-24T07:31:47.600Z,7.40
2017-11-24T07:34:15.632Z,7.50
2017-11-24T07:36:45.581Z,7.60
2017-11-24T07:39:20.900Z,7.70
2017-11-24T07:41:50.831Z,7.80
2017-11-24T07:44:30.661Z,7.80
2017-11-24T07:47:10.424Z,7.80
2017-11-24T07:49:44.180Z,7.90
2017-11-24T07:52:14.891Z,8.00
2017-11-24T07:54:43.681Z,8.10
2017-11-24T07:57:12.485Z,8.20
2017-11-24T07:59:41.291Z,8.20
2017-11-24T08:02:09.306Z,8.20
2017-11-24T08:04:39.321Z,8.30
2017-11-24T08:07:07.336Z,8.30
2017-11-24T08:09:36.276Z,8.40
2017-11-24T08:12:09.693Z,8.40
2017-11-24T08:14:38.684Z,8.50
2017-11-24T08:17:07.601Z,8.50
2017-11-24T08:19:39.024Z,8.50
2017-11-24T08:22:07.020Z,8.60
2017-11-24T08:24:36.982Z,8.60
2017-11-24T08:27:05.020Z,8.60
2017-11-24T08:29:37.612Z,8.60
2017-11-24T08:32:06.631Z,8.60
2017-11-24T08:34:44.656Z,8.60
2017-11-24T08:37:13.460Z,8.60
2017-11-24T08:39:41.480Z,8.60
2017-11-24T08:42:12.532Z,8.60
2017-11-24T08:44:42.023Z,8.60
2017-11-24T08:50:07.808Z,8.80
2017-11-24T08:52:35.844Z,8.90
2017-11-24T08:55:05.852Z,9.10
2017-11-24T08:57:35.892Z,9.40
2017-11-24T09:00:05.687Z,10.30
2017-11-24T09:02:33.748Z,10.20
2017-11-24T09:05:01.784Z,10.50
2017-11-24T09:07:31.528Z,10.90
2017-11-24T09:09:59.547Z,10.90
2017-11-24T09:12:35.331Z,10.90
2017-11-24T09:15:07.420Z,10.90
2017-11-24T09:17:36.436Z,11.50
2017-11-24T09:20:06.286Z,14.70
2017-11-24T09:22:36.051Z,14.70
2017-11-24T09:25:04.076Z,16.10
2017-11-24T09:27:32.103Z,16.50
2017-11-24T09:30:00.900Z,16.70
2017-11-24T09:32:29.688Z,15.30
2017-11-24T09:34:58.467Z,14.90
2017-11-24T09:37:30.723Z,14.80
2017-11-24T09:39:58.775Z,14.80
2017-11-24T09:42:35.235Z,13.90
2017-11-24T09:45:03.255Z,15.10
2017-11-24T09:47:35.490Z,16.80
2017-11-24T09:50:11.003Z,17.40
2017-11-24T09:52:40.027Z,17.90
2017-11-24T09:55:09.019Z,18.20
2017-11-24T09:57:42.791Z,18.20
2017-11-24T10:00:11.807Z,18.80
2017-11-24T10:02:46.719Z,18.00
2017-11-24T10:05:17.779Z,17.00
2017-11-24T10:07:49.743Z,16.60
2017-11-24T10:10:18.731Z,15.50
2017-11-24T10:12:47.739Z,14.60
2017-11-24T10:15:20.011Z,14.00
2017-11-24T10:17:50.009Z,13.70
2017-11-24T10:20:18.031Z,13.40
2017-11-24T10:22:46.979Z,13.50
2017-11-24T10:25:16.982Z,13.40
2017-11-24T10:27:59.947Z,13.30
2017-11-24T10:30:27.971Z,13.30
2017-11-24T10:32:56.970Z,13.00
2017-11-24T10:35:25.004Z,12.90
2017-11-24T10:37:54.035Z,13.00
2017-11-24T10:40:24.083Z,12.80
2017-11-24T10:42:57.546Z,12.50
2017-11-24T10:45:25.579Z,12.50
2017-11-24T10:47:53.603Z,12.40
2017-11-24T10:50:21.655Z,12.40
2017-11-24T10:52:55.466Z,12.50
2017-11-24T10:55:23.495Z,12.70
2017-11-24T10:57:53.449Z,13.00
2017-11-24T11:00:22.467Z,13.30
2017-11-24T11:02:50.477Z,13.50
2017-11-24T11:05:20.430Z,13.70
2017-11-24T11:07:58.206Z,13.90
2017-11-24T11:10:28.137Z,14.20
2017-11-24T11:13:02.745Z,15.40
2017-11-24T11:15:33.901Z,16.00
2017-11-24T11:18:09.342Z,16.40
2017-11-24T11:20:37.368Z,16.00
2017-11-24T11:23:05.386Z,15.40
2017-11-24T11:25:34.382Z,14.70
2017-11-24T11:28:08.874Z,14.40
2017-11-24T11:30:36.930Z,14.10
2017-11-24T11:33:10.678Z,13.90
2017-11-24T11:35:40.702Z,13.80
2017-11-24T11:38:08.729Z,14.00
2017-11-24T11:40:36.750Z,14.60
2017-11-24T11:43:10.231Z,16.70
2017-11-24T11:45:38.246Z,16.60
2017-11-24T11:48:06.266Z,18.50
2017-11-24T11:50:34.314Z,19.50
2017-11-24T11:53:02.339Z,18.90
2017-11-24T11:55:32.114Z,18.80
2017-11-24T11:58:01.122Z,18.80
2017-11-24T12:00:29.144Z,18.90
2017-11-24T12:03:03.710Z,19.20
2017-11-24T12:05:38.226Z,19.20
2017-11-24T12:08:09.894Z,21.50
2017-11-24T12:10:39.901Z,21.50
2017-11-24T12:13:12.079Z,21.80
2017-11-24T12:15:41.099Z,22.20
2017-11-24T12:18:09.090Z,22.70
2017-11-24T12:20:42.750Z,23.40
2017-11-24T12:23:16.942Z,24.00
2017-11-24T12:25:44.990Z,24.00
2017-11-24T12:28:14.937Z,24.60
2017-11-24T12:30:43.921Z,25.10
2017-11-24T12:33:12.920Z,25.50
2017-11-24T12:35:42.926Z,26.00
2017-11-24T12:38:10.966Z,25.20
2017-11-24T12:40:38.997Z,25.00
2017-11-24T12:43:11.133Z,21.80
2017-11-24T12:45:42.793Z,21.70
2017-11-24T12:48:12.806Z,20.00
2017-11-24T12:50:40.829Z,18.90
2017-11-24T12:53:09.788Z,18.90
2017-11-24T12:55:38.581Z,20.80
2017-11-24T12:58:07.370Z,21.80
2017-11-24T13:00:36.189Z,21.60
2017-11-24T13:03:05.005Z,20.90
2017-11-24T13:05:38.022Z,20.80
2017-11-24T13:08:06.042Z,20.00
2017-11-24T13:10:36.017Z,19.20
2017-11-24T13:13:04.157Z,19.00
2017-11-24T13:15:32.150Z,18.00
2017-11-24T13:18:00.949Z,16.00
2017-11-24T13:20:31.699Z,15.30
2017-11-24T13:23:01.397Z,15.00
2017-11-24T13:25:29.429Z,15.00
2017-11-24T13:27:58.429Z,14.70
2017-11-24T13:30:26.453Z,14.50
2017-11-24T13:32:56.405Z,14.30
2017-11-24T13:35:24.458Z,14.20
2017-11-24T13:37:54.389Z,14.00
2017-11-24T13:40:23.381Z,13.90
2017-11-24T13:42:51.449Z,13.80
2017-11-24T13:45:19.470Z,13.70
2017-11-24T13:47:47.498Z,13.70
2017-11-24T13:50:31.893Z,13.70
2017-11-24T13:52:59.917Z,13.60
2017-11-24T13:55:27.953Z,13.50
2017-11-24T13:57:57.919Z,13.40
2017-11-24T14:00:31.509Z,13.30
2017-11-24T14:03:12.981Z,13.20
2017-11-24T14:05:41.014Z,13.20
2017-11-24T14:08:09.805Z,13.10
2017-11-24T14:10:42.749Z,13.20
2017-11-24T14:13:13.461Z,13.10
2017-11-24T14:15:41.492Z,13.00
2017-11-24T14:18:09.529Z,13.00
2017-11-24T14:20:38.327Z,13.00
2017-11-24T14:23:07.282Z,13.00
2017-11-24T14:25:35.309Z,13.00
2017-11-24T14:28:05.268Z,12.90
2017-11-24T14:30:39.765Z,12.90
2017-11-24T14:33:08.772Z,12.70
2017-11-24T14:35:41.473Z,12.60
2017-11-24T14:38:10.449Z,12.30
2017-11-24T14:40:40.461Z,12.10
2017-11-24T14:43:08.577Z,12.00
2017-11-24T14:45:37.521Z,11.90
2017-11-24T14:48:06.538Z,11.60
2017-11-24T14:50:35.524Z,11.30
2017-11-24T14:53:04.509Z,11.10
2017-11-24T14:55:35.662Z,11.00
2017-11-24T14:58:04.649Z,10.90
2017-11-24T15:00:32.669Z,10.80
2017-11-24T15:03:03.553Z,10.70
2017-11-24T15:05:34.581Z,10.70
2017-11-24T15:08:03.617Z,10.70
2017-11-24T15:10:31.653Z,10.60
2017-11-24T15:13:07.009Z,10.60
2017-11-24T15:15:37.708Z,10.50
2017-11-24T15:18:14.184Z,10.50
2017-11-24T15:20:42.213Z,10.50
2017-11-24T15:23:10.239Z,10.50
2017-11-24T15:25:42.612Z,10.40
2017-11-24T15:28:11.589Z,10.40
2017-11-24T15:30:50.918Z,10.40
2017-11-24T15:33:19.913Z,10.40
2017-11-24T15:35:47.946Z,10.40
2017-11-24T15:38:15.985Z,10.50
2017-11-24T15:40:46.694Z,10.50
2017-11-24T15:43:23.141Z,10.50
2017-11-24T15:45:58.901Z,10.60
2017-11-24T15:48:28.937Z,10.60
2017-11-24T15:50:57.953Z,10.60
2017-11-24T15:53:27.933Z,10.60
2017-11-24T15:56:12.745Z,10.50
2017-11-24T15:58:40.789Z,10.40
2017-11-24T16:01:12.737Z,10.40
2017-11-24T16:03:40.773Z,10.30
2017-11-24T16:06:08.813Z,10.30
2017-11-24T16:08:43.801Z,10.30
2017-11-24T16:11:15.757Z,10.30
2017-11-24T16:13:44.789Z,10.30
2017-11-24T16:16:15.499Z,10.40
2017-11-24T16:18:49.033Z,10.40
2017-11-24T16:21:17.054Z,10.40
2017-11-24T16:23:46.052Z,10.40
2017-11-24T16:26:16.093Z,10.40
2017-11-24T16:28:49.161Z,10.50
2017-11-24T16:31:21.838Z,10.50
2017-11-24T16:33:53.593Z,10.50
2017-11-24T16:36:21.617Z,10.50
2017-11-24T16:38:52.410Z,10.60
2017-11-24T16:41:21.334Z,10.50
2017-11-24T16:43:53.901Z,10.60
2017-11-24T16:46:21.933Z,10.60
2017-11-24T16:48:49.961Z,10.60
2017-11-24T16:51:21.853Z,10.50
2017-11-24T16:53:53.308Z,10.50
2017-11-24T16:56:21.353Z,10.40
2017-11-24T16:58:49.377Z,10.40
2017-11-24T17:01:21.325Z,10.40
2017-11-24T17:03:52.037Z,10.40
2017-11-24T17:06:20.133Z,10.40
2017-11-24T17:08:50.850Z,10.40
2017-11-24T17:11:18.899Z,10.30
2017-11-24T17:13:46.912Z,10.30
2017-11-24T17:16:15.704Z,10.20
2017-11-24T17:18:52.425Z,10.10
2017-11-24T17:21:20.469Z,10.20
2017-11-24T17:23:53.411Z,10.10
2017-11-24T17:26:21.477Z,10.10
2017-11-24T17:28:50.465Z,10.00
2017-11-24T17:31:19.460Z,10.00
2017-11-24T17:33:47.501Z,9.90
2017-11-24T17:36:19.066Z,9.90
2017-11-24T17:38:47.061Z,9.90
2017-11-24T17:41:15.122Z,9.90
2017-11-24T17:43:43.118Z,9.90
2017-11-24T17:46:11.916Z,9.80
2017-11-24T17:48:40.868Z,9.80
2017-11-24T17:51:12.028Z,9.80
2017-11-24T17:53:45.777Z,9.70
2017-11-24T17:56:15.728Z,9.70
2017-11-24T17:58:44.652Z,9.70
2017-11-24T18:01:13.568Z,9.70
2017-11-24T18:03:42.372Z,9.70
2017-11-24T18:06:11.280Z,9.70
2017-11-24T18:08:40.192Z,9.70
2017-11-24T18:11:11.428Z,9.70
2017-11-24T18:13:39.444Z,9.60
2017-11-24T18:16:07.465Z,9.60
2017-11-24T18:18:39.102Z,9.60
2017-11-24T18:21:08.060Z,9.50
2017-11-24T18:23:36.080Z,9.40
2017-11-24T18:26:05.257Z,9.30
2017-11-24T18:28:38.360Z,9.30
2017-11-24T18:31:07.080Z,9.30
2017-11-24T18:33:35.192Z,9.30
2017-11-24T18:36:06.276Z,9.30
2017-11-24T18:38:36.995Z,9.30
2017-11-24T18:41:05.988Z,9.30
2017-11-24T18:43:39.976Z,9.30
2017-11-24T18:46:10.020Z,9.30
2017-11-24T18:48:40.028Z,9.30
2017-11-24T18:51:14.420Z,9.20
2017-11-24T18:53:43.331Z,9.20
2017-11-24T18:56:11.348Z,9.20
2017-11-24T18:58:43.599Z,9.20
2017-11-24T19:01:12.383Z,9.20
2017-11-24T19:03:43.099Z,9.20
2017-11-24T19:06:15.822Z,9.20
2017-11-24T19:08:45.811Z,9.20
2017-11-24T19:11:15.499Z,9.20
2017-11-24T19:13:50.024Z,9.20
2017-11-24T19:16:23.635Z,9.20
2017-11-24T19:18:53.083Z,9.20
2017-11-24T19:21:24.776Z,9.20
2017-11-24T19:23:52.811Z,9.30
2017-11-24T19:26:21.845Z,9.30
2017-11-24T19:28:51.764Z,9.30
2017-11-24T19:31:24.443Z,9.30
2017-11-24T19:34:00.991Z,9.30
2017-11-24T19:36:29.034Z,9.30
2017-11-24T19:39:01.348Z,9.30
2017-11-24T19:41:30.348Z,9.30
2017-11-24T19:44:02.699Z,9.20
2017-11-24T19:46:34.563Z,9.20
2017-11-24T19:49:02.581Z,9.20
2017-11-24T19:51:30.110Z,9.10
2017-11-24T19:53:58.423Z,9.10
2017-11-24T19:56:31.662Z,9.00
2017-11-24T19:58:59.698Z,9.10
2017-11-24T20:01:28.736Z,9.00
2017-11-24T20:04:00.087Z,9.00
2017-11-24T20:06:28.112Z,9.00
2017-11-24T20:08:57.126Z,9.00
2017-11-24T20:11:25.167Z,9.00
2017-11-24T20:13:55.119Z,9.00
2017-11-24T20:16:23.139Z,9.00
2017-11-24T20:18:52.111Z,9.00
2017-11-24T20:21:20.914Z,9.00
2017-11-24T20:23:52.939Z,9.00
2017-11-24T20:26:20.968Z,9.00
2017-11-24T20:28:53.594Z,9.00
2017-11-24T20:31:22.395Z,9.00
2017-11-24T20:33:54.239Z,9.00
2017-11-24T20:36:24.967Z,9.00
2017-11-24T20:38:53.902Z,8.90
2017-11-24T20:41:21.935Z,9.00
2017-11-24T20:43:51.851Z,9.00
2017-11-24T20:46:20.651Z,9.00
2017-11-24T20:48:50.343Z,9.00
2017-11-24T20:51:18.440Z,9.00
2017-11-24T20:53:46.480Z,9.00
2017-11-24T20:56:15.463Z,9.00
2017-11-24T20:58:43.487Z,9.00
2017-11-24T21:01:17.047Z,9.00
2017-11-24T21:03:45.834Z,9.00
2017-11-24T21:06:14.622Z,9.00
2017-11-24T21:08:45.362Z,8.90
2017-11-24T21:11:15.147Z,8.90
2017-11-24T21:13:44.134Z,8.90
2017-11-24T21:16:12.183Z,8.90
2017-11-24T21:18:41.106Z,8.90
2017-11-24T21:21:09.135Z,8.90
2017-11-24T21:23:37.213Z,8.80
2017-11-24T21:26:10.891Z,8.80
2017-11-24T21:28:38.930Z,8.80
2017-11-24T21:31:08.846Z,8.80
2017-11-24T21:33:40.703Z,8.70
2017-11-24T21:36:15.490Z,8.60
2017-11-24T21:38:53.398Z,8.60
2017-11-24T21:41:21.410Z,8.60
2017-11-24T21:43:52.555Z,8.60
2017-11-24T21:46:20.562Z,8.60
2017-11-24T21:48:56.839Z,8.60
2017-11-24T21:51:28.807Z,8.60
2017-11-24T21:53:56.851Z,8.60
2017-11-24T21:56:24.874Z,8.60
2017-11-24T21:58:54.883Z,8.60
2017-11-24T22:01:22.899Z,8.60
2017-11-24T22:03:52.923Z,8.70
2017-11-24T22:06:24.530Z,8.70
2017-11-24T22:08:53.510Z,8.70
2017-11-24T22:11:23.546Z,8.60
2017-11-24T22:13:54.007Z,8.60
2017-11-24T22:16:22.030Z,8.60
2017-11-24T22:18:52.047Z,8.60
2017-11-24T22:21:20.075Z,8.60
2017-11-24T22:23:51.095Z,8.60
2017-11-24T22:26:27.499Z,8.60
2017-11-24T22:29:00.566Z,8.60
2017-11-24T22:31:28.593Z,8.60
2017-11-24T22:33:57.386Z,8.60
2017-11-24T22:36:26.174Z,8.60
2017-11-24T22:38:54.981Z,8.60
2017-11-24T22:41:24.815Z,8.60
2017-11-24T22:43:52.836Z,8.60
2017-11-24T22:46:20.854Z,8.60
2017-11-24T22:48:48.878Z,8.60
2017-11-24T22:51:17.858Z,8.60
2017-11-24T22:53:45.906Z,8.50
2017-11-24T22:56:13.914Z,8.50
2017-11-24T22:58:47.194Z,8.50
2017-11-24T23:01:15.219Z,8.50
2017-11-24T23:03:43.242Z,8.50
2017-11-24T23:06:12.234Z,8.50
2017-11-24T23:08:40.254Z,8.50
2017-11-24T23:11:10.206Z,8.50
2017-11-24T23:13:38.250Z,8.50
2017-11-24T23:16:07.986Z,8.40
2017-11-24T23:18:40.170Z,8.40
2017-11-24T23:21:10.162Z,8.40
2017-11-24T23:23:40.189Z,8.30
2017-11-24T23:26:11.833Z,8.30
2017-11-24T23:28:39.858Z,8.30
2017-11-24T23:31:07.874Z,8.30
2017-11-24T23:33:37.886Z,8.30
2017-11-24T23:36:05.921Z,8.30
2017-11-24T23:38:34.942Z,8.20
2017-11-24T23:41:08.722Z,8.20
2017-11-24T23:43:37.758Z,8.20
2017-11-24T23:46:06.741Z,8.20
2017-11-24T23:48:34.770Z,8.20
2017-11-24T23:51:02.789Z,8.20
2017-11-24T23:53:30.818Z,8.30
2017-11-24T23:55:59.646Z,8.30
2017-11-24T23:58:36.033Z,8.30
